sensor_id;sensor_type;location;lat;lon;timestamp;P1;durP1;ratioP1;P2;durP2;ratioP2
70150;SDS011;57517;43.562;19.540;2022-10-16T00:01:30;17.52;;;11.05;;
70150;SDS011;57517;43.562;19.540;2022-10-16T00:03:57;13.45;;;10.00;;
70150;SDS011;57517;43.562;19.540;2022-10-16T00:06:24;15.82;;;10.32;;
70150;SDS011;57517;43.562;19.540;2022-10-16T00:08:52;15.40;;;10.70;;
70150;SDS011;57517;43.562;19.540;2022-10-16T00:11:26;18.80;;;10.77;;
70150;SDS011;57517;43.562;19.540;2022-10-16T00:13:57;17.77;;;11.27;;
70150;SDS011;57517;43.562;19.540;2022-10-16T00:16:24;13.82;;;10.35;;
70150;SDS011;57517;43.562;19.540;2022-10-16T00:18:50;12.18;;;9.85;;
70150;SDS011;57517;43.562;19.540;2022-10-16T00:21:17;15.75;;;11.50;;
70150;SDS011;57517;43.562;19.540;2022-10-16T00:23:45;13.90;;;10.02;;
70150;SDS011;57517;43.562;19.540;2022-10-16T00:26:13;17.02;;;11.10;;
70150;SDS011;57517;43.562;19.540;2022-10-16T00:28:40;24.05;;;16.80;;
70150;SDS011;57517;43.562;19.540;2022-10-16T00:31:07;21.42;;;15.95;;
70150;SDS011;57517;43.562;19.540;2022-10-16T00:33:35;21.58;;;15.52;;
70150;SDS011;57517;43.562;19.540;2022-10-16T00:36:02;21.45;;;15.40;;
70150;SDS011;57517;43.562;19.540;2022-10-16T00:38:30;18.38;;;14.70;;
70150;SDS011;57517;43.562;19.540;2022-10-16T00:40:56;17.02;;;13.10;;
70150;SDS011;57517;43.562;19.540;2022-10-16T00:43:41;17.98;;;13.38;;
70150;SDS011;57517;43.562;19.540;2022-10-16T00:46:22;14.73;;;11.80;;
70150;SDS011;57517;43.562;19.540;2022-10-16T00:49:06;14.55;;;11.35;;
70150;SDS011;57517;43.562;19.540;2022-10-16T00:51:45;17.55;;;12.07;;
70150;SDS011;57517;43.562;19.540;2022-10-16T00:54:29;13.02;;;10.38;;
70150;SDS011;57517;43.562;19.540;2022-10-16T00:56:56;13.63;;;10.00;;
70150;SDS011;57517;43.562;19.540;2022-10-16T00:59:29;23.17;;;10.60;;
70150;SDS011;57517;43.562;19.540;2022-10-16T01:01:57;13.60;;;9.30;;
70150;SDS011;57517;43.562;19.540;2022-10-16T01:04:24;14.60;;;9.20;;
70150;SDS011;57517;43.562;19.540;2022-10-16T01:12:10;12.75;;;8.38;;
70150;SDS011;57517;43.562;19.540;2022-10-16T01:14:54;14.52;;;9.95;;
70150;SDS011;57517;43.562;19.540;2022-10-16T01:21:04;12.38;;;8.68;;
70150;SDS011;57517;43.562;19.540;2022-10-16T01:24:22;16.00;;;10.70;;
70150;SDS011;57517;43.562;19.540;2022-10-16T01:26:29;14.55;;;9.20;;
70150;SDS011;57517;43.562;19.540;2022-10-16T01:28:59;14.77;;;9.07;;
70150;SDS011;57517;43.562;19.540;2022-10-16T01:31:33;13.93;;;9.55;;
70150;SDS011;57517;43.562;19.540;2022-10-16T01:34:15;14.15;;;10.30;;
70150;SDS011;57517;43.562;19.540;2022-10-16T01:36:47;11.32;;;8.38;;
70150;SDS011;57517;43.562;19.540;2022-10-16T01:39:21;14.80;;;9.88;;
70150;SDS011;57517;43.562;19.540;2022-10-16T01:41:54;14.52;;;9.65;;
70150;SDS011;57517;43.562;19.540;2022-10-16T01:44:25;13.82;;;9.68;;
70150;SDS011;57517;43.562;19.540;2022-10-16T01:46:53;14.13;;;8.95;;
70150;SDS011;57517;43.562;19.540;2022-10-16T01:49:20;14.85;;;9.82;;
70150;SDS011;57517;43.562;19.540;2022-10-16T01:51:50;15.73;;;10.05;;
70150;SDS011;57517;43.562;19.540;2022-10-16T01:54:20;16.25;;;10.40;;
70150;SDS011;57517;43.562;19.540;2022-10-16T01:56:50;14.38;;;10.07;;
70150;SDS011;57517;43.562;19.540;2022-10-16T01:59:17;16.08;;;9.45;;
70150;SDS011;57517;43.562;19.540;2022-10-16T02:01:46;17.25;;;11.65;;
70150;SDS011;57517;43.562;19.540;2022-10-16T02:04:21;22.30;;;13.15;;
70150;SDS011;57517;43.562;19.540;2022-10-16T02:07:12;22.83;;;13.70;;
70150;SDS011;57517;43.562;19.540;2022-10-16T02:09:39;19.13;;;13.27;;
70150;SDS011;57517;43.562;19.540;2022-10-16T02:12:07;20.73;;;13.70;;
70150;SDS011;57517;43.562;19.540;2022-10-16T02:14:39;20.55;;;14.13;;
70150;SDS011;57517;43.562;19.540;2022-10-16T02:17:13;17.85;;;12.45;;
70150;SDS011;57517;43.562;19.540;2022-10-16T02:19:41;23.35;;;13.25;;
70150;SDS011;57517;43.562;19.540;2022-10-16T02:22:08;18.20;;;12.13;;
70150;SDS011;57517;43.562;19.540;2022-10-16T02:24:48;16.67;;;11.88;;
70150;SDS011;57517;43.562;19.540;2022-10-16T02:29:54;19.75;;;12.38;;
70150;SDS011;57517;43.562;19.540;2022-10-16T02:32:44;18.90;;;11.73;;
70150;SDS011;57517;43.562;19.540;2022-10-16T02:35:13;16.63;;;12.57;;
70150;SDS011;57517;43.562;19.540;2022-10-16T02:37:42;16.70;;;11.45;;
70150;SDS011;57517;43.562;19.540;2022-10-16T02:40:08;19.05;;;12.95;;
70150;SDS011;57517;43.562;19.540;2022-10-16T02:42:36;17.90;;;12.90;;
70150;SDS011;57517;43.562;19.540;2022-10-16T02:45:04;30.40;;;14.75;;
70150;SDS011;57517;43.562;19.540;2022-10-16T02:47:31;24.63;;;14.10;;
70150;SDS011;57517;43.562;19.540;2022-10-16T02:49:57;18.10;;;13.43;;
70150;SDS011;57517;43.562;19.540;2022-10-16T02:52:22;17.15;;;11.98;;
70150;SDS011;57517;43.562;19.540;2022-10-16T02:54:48;29.73;;;15.35;;
70150;SDS011;57517;43.562;19.540;2022-10-16T02:57:14;18.65;;;14.45;;
70150;SDS011;57517;43.562;19.540;2022-10-16T02:59:40;26.90;;;15.57;;
70150;SDS011;57517;43.562;19.540;2022-10-16T03:02:06;52.80;;;17.88;;
70150;SDS011;57517;43.562;19.540;2022-10-16T03:04:32;45.88;;;18.45;;
70150;SDS011;57517;43.562;19.540;2022-10-16T03:06:58;24.55;;;16.42;;
70150;SDS011;57517;43.562;19.540;2022-10-16T03:09:24;47.30;;;18.17;;
70150;SDS011;57517;43.562;19.540;2022-10-16T03:11:49;23.83;;;15.02;;
70150;SDS011;57517;43.562;19.540;2022-10-16T03:14:15;56.45;;;19.35;;
70150;SDS011;57517;43.562;19.540;2022-10-16T03:16:41;24.27;;;15.88;;
70150;SDS011;57517;43.562;19.540;2022-10-16T03:19:07;32.55;;;15.38;;
70150;SDS011;57517;43.562;19.540;2022-10-16T03:21:33;20.85;;;14.15;;
70150;SDS011;57517;43.562;19.540;2022-10-16T03:23:59;19.80;;;13.80;;
70150;SDS011;57517;43.562;19.540;2022-10-16T03:26:24;22.02;;;14.65;;
70150;SDS011;57517;43.562;19.540;2022-10-16T03:28:50;25.83;;;15.25;;
70150;SDS011;57517;43.562;19.540;2022-10-16T03:31:16;23.70;;;14.30;;
70150;SDS011;57517;43.562;19.540;2022-10-16T03:33:42;19.80;;;13.35;;
70150;SDS011;57517;43.562;19.540;2022-10-16T03:36:07;18.92;;;12.38;;
70150;SDS011;57517;43.562;19.540;2022-10-16T03:38:33;16.38;;;13.38;;
70150;SDS011;57517;43.562;19.540;2022-10-16T03:40:59;16.67;;;12.65;;
70150;SDS011;57517;43.562;19.540;2022-10-16T03:43:25;16.42;;;11.43;;
70150;SDS011;57517;43.562;19.540;2022-10-16T03:45:51;15.38;;;11.82;;
70150;SDS011;57517;43.562;19.540;2022-10-16T03:48:17;17.00;;;12.65;;
70150;SDS011;57517;43.562;19.540;2022-10-16T03:50:44;17.05;;;12.55;;
70150;SDS011;57517;43.562;19.540;2022-10-16T03:53:11;17.65;;;12.80;;
70150;SDS011;57517;43.562;19.540;2022-10-16T03:55:37;16.20;;;11.85;;
70150;SDS011;57517;43.562;19.540;2022-10-16T03:58:02;17.38;;;11.77;;
70150;SDS011;57517;43.562;19.540;2022-10-16T04:00:28;14.45;;;11.55;;
70150;SDS011;57517;43.562;19.540;2022-10-16T04:02:54;18.33;;;11.18;;
70150;SDS011;57517;43.562;19.540;2022-10-16T04:05:20;15.68;;;10.65;;
70150;SDS011;57517;43.562;19.540;2022-10-16T04:07:45;20.40;;;12.43;;
70150;SDS011;57517;43.562;19.540;2022-10-16T04:10:11;16.38;;;11.80;;
70150;SDS011;57517;43.562;19.540;2022-10-16T04:12:37;18.20;;;11.82;;
70150;SDS011;57517;43.562;19.540;2022-10-16T04:15:03;16.17;;;11.32;;
70150;SDS011;57517;43.562;19.540;2022-10-16T04:17:28;16.88;;;11.13;;
70150;SDS011;57517;43.562;19.540;2022-10-16T04:19:54;16.20;;;11.65;;
70150;SDS011;57517;43.562;19.540;2022-10-16T04:22:20;17.58;;;11.63;;
70150;SDS011;57517;43.562;19.540;2022-10-16T04:24:46;15.55;;;10.73;;
70150;SDS011;57517;43.562;19.540;2022-10-16T04:27:11;15.65;;;11.05;;
70150;SDS011;57517;43.562;19.540;2022-10-16T04:29:37;14.32;;;11.32;;
70150;SDS011;57517;43.562;19.540;2022-10-16T04:32:03;16.27;;;11.07;;
70150;SDS011;57517;43.562;19.540;2022-10-16T04:34:29;17.88;;;11.05;;
70150;SDS011;57517;43.562;19.540;2022-10-16T04:36:55;14.00;;;10.65;;
70150;SDS011;57517;43.562;19.540;2022-10-16T04:39:20;16.67;;;12.82;;
70150;SDS011;57517;43.562;19.540;2022-10-16T04:41:46;20.83;;;14.27;;
70150;SDS011;57517;43.562;19.540;2022-10-16T04:44:12;18.25;;;12.60;;
70150;SDS011;57517;43.562;19.540;2022-10-16T04:46:38;22.30;;;12.88;;
70150;SDS011;57517;43.562;19.540;2022-10-16T04:49:04;16.83;;;12.38;;
70150;SDS011;57517;43.562;19.540;2022-10-16T04:51:29;16.25;;;12.27;;
70150;SDS011;57517;43.562;19.540;2022-10-16T04:53:56;17.90;;;13.00;;
70150;SDS011;57517;43.562;19.540;2022-10-16T04:56:22;18.30;;;12.90;;
70150;SDS011;57517;43.562;19.540;2022-10-16T04:58:48;15.98;;;11.35;;
70150;SDS011;57517;43.562;19.540;2022-10-16T05:01:14;17.63;;;12.77;;
70150;SDS011;57517;43.562;19.540;2022-10-16T05:03:39;18.30;;;12.77;;
70150;SDS011;57517;43.562;19.540;2022-10-16T05:06:06;19.23;;;12.98;;
70150;SDS011;57517;43.562;19.540;2022-10-16T05:08:32;22.40;;;14.55;;
70150;SDS011;57517;43.562;19.540;2022-10-16T05:10:58;23.15;;;14.75;;
70150;SDS011;57517;43.562;19.540;2022-10-16T05:13:24;17.33;;;13.32;;
70150;SDS011;57517;43.562;19.540;2022-10-16T05:15:49;19.60;;;14.82;;
70150;SDS011;57517;43.562;19.540;2022-10-16T05:18:15;21.13;;;14.18;;
70150;SDS011;57517;43.562;19.540;2022-10-16T05:20:41;20.55;;;15.13;;
70150;SDS011;57517;43.562;19.540;2022-10-16T05:23:07;18.17;;;13.40;;
70150;SDS011;57517;43.562;19.540;2022-10-16T05:25:35;19.83;;;13.75;;
70150;SDS011;57517;43.562;19.540;2022-10-16T05:28:01;19.83;;;14.00;;
70150;SDS011;57517;43.562;19.540;2022-10-16T05:30:27;23.50;;;15.32;;
70150;SDS011;57517;43.562;19.540;2022-10-16T05:32:53;23.75;;;17.42;;
70150;SDS011;57517;43.562;19.540;2022-10-16T05:35:19;20.00;;;15.40;;
70150;SDS011;57517;43.562;19.540;2022-10-16T05:37:45;23.77;;;16.60;;
70150;SDS011;57517;43.562;19.540;2022-10-16T05:40:11;22.70;;;14.88;;
70150;SDS011;57517;43.562;19.540;2022-10-16T05:42:38;26.13;;;15.65;;
70150;SDS011;57517;43.562;19.540;2022-10-16T05:45:05;21.42;;;14.38;;
70150;SDS011;57517;43.562;19.540;2022-10-16T05:47:31;20.75;;;13.23;;
70150;SDS011;57517;43.562;19.540;2022-10-16T05:49:57;17.75;;;13.27;;
70150;SDS011;57517;43.562;19.540;2022-10-16T05:52:23;20.15;;;15.10;;
70150;SDS011;57517;43.562;19.540;2022-10-16T05:54:49;21.85;;;15.20;;
70150;SDS011;57517;43.562;19.540;2022-10-16T05:57:15;17.90;;;13.20;;
70150;SDS011;57517;43.562;19.540;2022-10-16T05:59:40;19.67;;;14.13;;
70150;SDS011;57517;43.562;19.540;2022-10-16T06:02:08;23.10;;;14.98;;
70150;SDS011;57517;43.562;19.540;2022-10-16T06:04:38;20.15;;;15.18;;
70150;SDS011;57517;43.562;19.540;2022-10-16T06:07:04;21.75;;;14.25;;
70150;SDS011;57517;43.562;19.540;2022-10-16T06:09:30;19.33;;;14.27;;
70150;SDS011;57517;43.562;19.540;2022-10-16T06:11:56;21.35;;;14.38;;
70150;SDS011;57517;43.562;19.540;2022-10-16T06:14:21;20.85;;;14.13;;
70150;SDS011;57517;43.562;19.540;2022-10-16T06:16:47;26.38;;;14.85;;
70150;SDS011;57517;43.562;19.540;2022-10-16T06:19:13;29.73;;;22.45;;
70150;SDS011;57517;43.562;19.540;2022-10-16T06:21:40;37.85;;;25.77;;
70150;SDS011;57517;43.562;19.540;2022-10-16T06:24:06;47.75;;;35.97;;
70150;SDS011;57517;43.562;19.540;2022-10-16T06:26:32;26.15;;;20.55;;
70150;SDS011;57517;43.562;19.540;2022-10-16T06:28:58;22.63;;;16.55;;
70150;SDS011;57517;43.562;19.540;2022-10-16T06:31:25;38.95;;;32.25;;
70150;SDS011;57517;43.562;19.540;2022-10-16T06:33:54;35.08;;;26.42;;
70150;SDS011;57517;43.562;19.540;2022-10-16T06:36:21;29.23;;;23.05;;
70150;SDS011;57517;43.562;19.540;2022-10-16T06:38:47;22.20;;;16.05;;
70150;SDS011;57517;43.562;19.540;2022-10-16T06:41:14;19.90;;;13.80;;
70150;SDS011;57517;43.562;19.540;2022-10-16T06:43:42;20.15;;;14.18;;
70150;SDS011;57517;43.562;19.540;2022-10-16T06:46:12;18.88;;;12.98;;
70150;SDS011;57517;43.562;19.540;2022-10-16T06:48:39;21.73;;;13.05;;
70150;SDS011;57517;43.562;19.540;2022-10-16T06:53:34;19.63;;;13.27;;
70150;SDS011;57517;43.562;19.540;2022-10-16T06:56:08;20.23;;;14.07;;
70150;SDS011;57517;43.562;19.540;2022-10-16T06:58:36;19.40;;;12.98;;
70150;SDS011;57517;43.562;19.540;2022-10-16T07:01:02;18.38;;;15.73;;
70150;SDS011;57517;43.562;19.540;2022-10-16T07:03:28;20.65;;;14.38;;
70150;SDS011;57517;43.562;19.540;2022-10-16T07:05:54;23.48;;;16.52;;
70150;SDS011;57517;43.562;19.540;2022-10-16T07:08:21;21.45;;;16.55;;
70150;SDS011;57517;43.562;19.540;2022-10-16T07:10:47;18.73;;;14.35;;
70150;SDS011;57517;43.562;19.540;2022-10-16T07:13:13;20.52;;;15.52;;
70150;SDS011;57517;43.562;19.540;2022-10-16T07:15:39;21.02;;;16.13;;
70150;SDS011;57517;43.562;19.540;2022-10-16T07:18:06;22.55;;;20.08;;
70150;SDS011;57517;43.562;19.540;2022-10-16T07:20:32;22.25;;;16.08;;
70150;SDS011;57517;43.562;19.540;2022-10-16T07:22:58;18.67;;;15.00;;
70150;SDS011;57517;43.562;19.540;2022-10-16T07:25:23;20.20;;;15.18;;
70150;SDS011;57517;43.562;19.540;2022-10-16T07:27:49;19.85;;;14.82;;
70150;SDS011;57517;43.562;19.540;2022-10-16T07:30:15;19.35;;;15.52;;
70150;SDS011;57517;43.562;19.540;2022-10-16T07:32:41;19.23;;;15.30;;
70150;SDS011;57517;43.562;19.540;2022-10-16T07:35:07;17.92;;;14.15;;
70150;SDS011;57517;43.562;19.540;2022-10-16T07:37:33;15.95;;;13.80;;
70150;SDS011;57517;43.562;19.540;2022-10-16T07:39:58;18.60;;;15.32;;
70150;SDS011;57517;43.562;19.540;2022-10-16T07:42:24;20.10;;;16.90;;
70150;SDS011;57517;43.562;19.540;2022-10-16T07:44:50;22.45;;;16.25;;
70150;SDS011;57517;43.562;19.540;2022-10-16T07:47:16;19.17;;;16.05;;
70150;SDS011;57517;43.562;19.540;2022-10-16T07:49:41;22.13;;;18.58;;
70150;SDS011;57517;43.562;19.540;2022-10-16T07:52:07;25.83;;;19.98;;
70150;SDS011;57517;43.562;19.540;2022-10-16T07:54:33;23.48;;;20.10;;
70150;SDS011;57517;43.562;19.540;2022-10-16T07:56:59;24.95;;;21.05;;
70150;SDS011;57517;43.562;19.540;2022-10-16T07:59:24;22.38;;;18.58;;
70150;SDS011;57517;43.562;19.540;2022-10-16T08:01:50;20.92;;;17.75;;
70150;SDS011;57517;43.562;19.540;2022-10-16T08:04:16;23.73;;;21.10;;
70150;SDS011;57517;43.562;19.540;2022-10-16T08:06:42;20.25;;;17.95;;
70150;SDS011;57517;43.562;19.540;2022-10-16T08:09:08;24.40;;;20.33;;
70150;SDS011;57517;43.562;19.540;2022-10-16T08:11:34;20.75;;;18.58;;
70150;SDS011;57517;43.562;19.540;2022-10-16T08:14:00;22.08;;;19.70;;
70150;SDS011;57517;43.562;19.540;2022-10-16T08:16:26;23.77;;;17.92;;
70150;SDS011;57517;43.562;19.540;2022-10-16T08:18:51;22.40;;;20.15;;
70150;SDS011;57517;43.562;19.540;2022-10-16T08:21:19;19.42;;;17.42;;
70150;SDS011;57517;43.562;19.540;2022-10-16T08:23:46;19.92;;;17.92;;
70150;SDS011;57517;43.562;19.540;2022-10-16T08:26:12;22.13;;;19.83;;
70150;SDS011;57517;43.562;19.540;2022-10-16T08:28:38;20.00;;;18.00;;
70150;SDS011;57517;43.562;19.540;2022-10-16T08:31:08;18.65;;;16.60;;
70150;SDS011;57517;43.562;19.540;2022-10-16T08:33:39;22.02;;;19.40;;
70150;SDS011;57517;43.562;19.540;2022-10-16T08:36:06;24.52;;;21.90;;
70150;SDS011;57517;43.562;19.540;2022-10-16T08:38:33;22.33;;;20.02;;
70150;SDS011;57517;43.562;19.540;2022-10-16T08:48:56;22.63;;;20.25;;
70150;SDS011;57517;43.562;19.540;2022-10-16T08:51:26;23.02;;;19.15;;
70150;SDS011;57517;43.562;19.540;2022-10-16T08:53:56;21.88;;;19.60;;
70150;SDS011;57517;43.562;19.540;2022-10-16T08:56:24;24.75;;;22.25;;
70150;SDS011;57517;43.562;19.540;2022-10-16T08:58:51;26.00;;;23.27;;
70150;SDS011;57517;43.562;19.540;2022-10-16T09:01:19;27.10;;;24.13;;
70150;SDS011;57517;43.562;19.540;2022-10-16T09:22:55;22.58;;;20.05;;
70150;SDS011;57517;43.562;19.540;2022-10-16T09:25:28;20.02;;;17.88;;
70150;SDS011;57517;43.562;19.540;2022-10-16T09:27:55;34.58;;;31.23;;
70150;SDS011;57517;43.562;19.540;2022-10-16T09:30:21;34.55;;;31.00;;
70150;SDS011;57517;43.562;19.540;2022-10-16T09:32:51;30.38;;;27.40;;
70150;SDS011;57517;43.562;19.540;2022-10-16T09:35:22;24.13;;;21.45;;
70150;SDS011;57517;43.562;19.540;2022-10-16T09:38:02;28.20;;;24.30;;
70150;SDS011;57517;43.562;19.540;2022-10-16T09:40:30;25.63;;;22.95;;
70150;SDS011;57517;43.562;19.540;2022-10-16T09:45:56;21.15;;;18.50;;
70150;SDS011;57517;43.562;19.540;2022-10-16T09:48:23;20.00;;;17.27;;
70150;SDS011;57517;43.562;19.540;2022-10-16T09:51:00;24.10;;;20.77;;
70150;SDS011;57517;43.562;19.540;2022-10-16T09:53:38;17.05;;;15.35;;
70150;SDS011;57517;43.562;19.540;2022-10-16T09:56:06;16.83;;;11.85;;
70150;SDS011;57517;43.562;19.540;2022-10-16T09:58:32;14.60;;;12.32;;
70150;SDS011;57517;43.562;19.540;2022-10-16T10:00:58;16.33;;;14.63;;
70150;SDS011;57517;43.562;19.540;2022-10-16T10:03:36;14.88;;;13.40;;
70150;SDS011;57517;43.562;19.540;2022-10-16T10:06:26;17.05;;;14.70;;
70150;SDS011;57517;43.562;19.540;2022-10-16T10:09:04;22.88;;;18.90;;
70150;SDS011;57517;43.562;19.540;2022-10-16T10:11:40;16.00;;;13.40;;
70150;SDS011;57517;43.562;19.540;2022-10-16T10:19:30;17.52;;;13.68;;
70150;SDS011;57517;43.562;19.540;2022-10-16T10:24:35;16.80;;;13.30;;
70150;SDS011;57517;43.562;19.540;2022-10-16T10:27:05;15.02;;;12.23;;
70150;SDS011;57517;43.562;19.540;2022-10-16T10:32:38;13.38;;;11.80;;
70150;SDS011;57517;43.562;19.540;2022-10-16T10:35:33;25.65;;;18.15;;
70150;SDS011;57517;43.562;19.540;2022-10-16T10:38:30;21.70;;;13.40;;
70150;SDS011;57517;43.562;19.540;2022-10-16T10:41:38;14.73;;;11.77;;
70150;SDS011;57517;43.562;19.540;2022-10-16T10:55:19;16.52;;;11.30;;
70150;SDS011;57517;43.562;19.540;2022-10-16T11:06:18;16.00;;;14.30;;
70150;SDS011;57517;43.562;19.540;2022-10-16T11:09:18;18.17;;;14.93;;
70150;SDS011;57517;43.562;19.540;2022-10-16T11:11:55;17.45;;;13.85;;
70150;SDS011;57517;43.562;19.540;2022-10-16T11:14:32;14.95;;;11.85;;
70150;SDS011;57517;43.562;19.540;2022-10-16T11:17:10;13.15;;;10.05;;
70150;SDS011;57517;43.562;19.540;2022-10-16T11:20:37;12.38;;;9.50;;
70150;SDS011;57517;43.562;19.540;2022-10-16T11:23:29;12.97;;;8.80;;
70150;SDS011;57517;43.562;19.540;2022-10-16T11:26:01;12.82;;;8.35;;
70150;SDS011;57517;43.562;19.540;2022-10-16T11:28:33;11.05;;;8.20;;
70150;SDS011;57517;43.562;19.540;2022-10-16T11:31:04;10.52;;;8.05;;
70150;SDS011;57517;43.562;19.540;2022-10-16T11:33:39;10.90;;;7.57;;
70150;SDS011;57517;43.562;19.540;2022-10-16T11:36:12;10.02;;;7.60;;
70150;SDS011;57517;43.562;19.540;2022-10-16T11:46:53;12.57;;;8.93;;
70150;SDS011;57517;43.562;19.540;2022-10-16T11:49:30;12.20;;;9.55;;
70150;SDS011;57517;43.562;19.540;2022-10-16T11:52:19;12.10;;;8.57;;
70150;SDS011;57517;43.562;19.540;2022-10-16T11:55:17;9.80;;;7.70;;
70150;SDS011;57517;43.562;19.540;2022-10-16T11:57:54;10.43;;;8.48;;
70150;SDS011;57517;43.562;19.540;2022-10-16T12:00:33;11.73;;;7.93;;
70150;SDS011;57517;43.562;19.540;2022-10-16T12:06:13;11.85;;;7.55;;
70150;SDS011;57517;43.562;19.540;2022-10-16T12:08:44;10.20;;;7.78;;
70150;SDS011;57517;43.562;19.540;2022-10-16T12:11:23;10.30;;;7.65;;
70150;SDS011;57517;43.562;19.540;2022-10-16T12:16:55;11.55;;;7.95;;
70150;SDS011;57517;43.562;19.540;2022-10-16T12:19:24;11.73;;;8.45;;
70150;SDS011;57517;43.562;19.540;2022-10-16T12:21:54;13.23;;;8.63;;
70150;SDS011;57517;43.562;19.540;2022-10-16T12:24:37;12.63;;;9.07;;
70150;SDS011;57517;43.562;19.540;2022-10-16T12:27:20;12.30;;;10.90;;
70150;SDS011;57517;43.562;19.540;2022-10-16T12:30:00;19.15;;;13.23;;
70150;SDS011;57517;43.562;19.540;2022-10-16T12:32:37;15.40;;;10.73;;
70150;SDS011;57517;43.562;19.540;2022-10-16T12:35:05;12.73;;;8.55;;
70150;SDS011;57517;43.562;19.540;2022-10-16T12:37:42;12.15;;;9.68;;
70150;SDS011;57517;43.562;19.540;2022-10-16T12:40:29;15.07;;;11.15;;
70150;SDS011;57517;43.562;19.540;2022-10-16T12:42:57;13.63;;;10.90;;
70150;SDS011;57517;43.562;19.540;2022-10-16T12:45:25;19.42;;;14.60;;
70150;SDS011;57517;43.562;19.540;2022-10-16T12:47:56;12.02;;;9.38;;
70150;SDS011;57517;43.562;19.540;2022-10-16T12:52:51;12.13;;;9.50;;
70150;SDS011;57517;43.562;19.540;2022-10-16T12:55:18;13.45;;;8.88;;
70150;SDS011;57517;43.562;19.540;2022-10-16T12:58:03;14.52;;;10.93;;
70150;SDS011;57517;43.562;19.540;2022-10-16T13:00:46;18.50;;;10.27;;
70150;SDS011;57517;43.562;19.540;2022-10-16T13:11:51;11.10;;;8.60;;
70150;SDS011;57517;43.562;19.540;2022-10-16T13:14:39;17.10;;;7.78;;
70150;SDS011;57517;43.562;19.540;2022-10-16T13:17:38;13.85;;;8.73;;
70150;SDS011;57517;43.562;19.540;2022-10-16T13:20:31;16.85;;;11.95;;
70150;SDS011;57517;43.562;19.540;2022-10-16T13:23:03;20.00;;;14.88;;
70150;SDS011;57517;43.562;19.540;2022-10-16T13:25:41;17.63;;;12.63;;
70150;SDS011;57517;43.562;19.540;2022-10-16T13:28:29;16.27;;;12.27;;
70150;SDS011;57517;43.562;19.540;2022-10-16T13:30:57;16.73;;;13.25;;
70150;SDS011;57517;43.562;19.540;2022-10-16T13:35:56;13.43;;;10.05;;
70150;SDS011;57517;43.562;19.540;2022-10-16T13:38:27;13.18;;;10.10;;
70150;SDS011;57517;43.562;19.540;2022-10-16T13:40:57;12.07;;;8.85;;
70150;SDS011;57517;43.562;19.540;2022-10-16T13:43:32;14.77;;;10.75;;
70150;SDS011;57517;43.562;19.540;2022-10-16T13:46:03;11.43;;;8.93;;
70150;SDS011;57517;43.562;19.540;2022-10-16T13:48:32;15.35;;;11.68;;
70150;SDS011;57517;43.562;19.540;2022-10-16T13:51:01;14.75;;;11.27;;
70150;SDS011;57517;43.562;19.540;2022-10-16T13:53:35;15.55;;;12.95;;
70150;SDS011;57517;43.562;19.540;2022-10-16T13:56:02;20.25;;;12.35;;
70150;SDS011;57517;43.562;19.540;2022-10-16T13:58:30;20.13;;;12.68;;
70150;SDS011;57517;43.562;19.540;2022-10-16T14:01:03;20.88;;;14.20;;
70150;SDS011;57517;43.562;19.540;2022-10-16T14:03:32;18.38;;;14.40;;
70150;SDS011;57517;43.562;19.540;2022-10-16T14:06:01;25.23;;;16.88;;
70150;SDS011;57517;43.562;19.540;2022-10-16T14:08:30;29.13;;;19.92;;
70150;SDS011;57517;43.562;19.540;2022-10-16T14:10:57;29.48;;;21.85;;
70150;SDS011;57517;43.562;19.540;2022-10-16T14:13:36;29.38;;;22.45;;
70150;SDS011;57517;43.562;19.540;2022-10-16T14:16:09;27.40;;;20.85;;
70150;SDS011;57517;43.562;19.540;2022-10-16T14:18:40;25.67;;;19.85;;
70150;SDS011;57517;43.562;19.540;2022-10-16T14:21:07;25.48;;;17.42;;
70150;SDS011;57517;43.562;19.540;2022-10-16T14:23:38;22.23;;;16.65;;
70150;SDS011;57517;43.562;19.540;2022-10-16T14:28:34;29.17;;;22.23;;
70150;SDS011;57517;43.562;19.540;2022-10-16T14:31:01;29.35;;;18.75;;
70150;SDS011;57517;43.562;19.540;2022-10-16T14:33:40;28.58;;;20.58;;
70150;SDS011;57517;43.562;19.540;2022-10-16T14:38:34;33.47;;;25.33;;
70150;SDS011;57517;43.562;19.540;2022-10-16T14:41:01;39.53;;;28.10;;
70150;SDS011;57517;43.562;19.540;2022-10-16T14:43:41;40.78;;;30.13;;
70150;SDS011;57517;43.562;19.540;2022-10-16T14:46:12;41.75;;;29.05;;
70150;SDS011;57517;43.562;19.540;2022-10-16T14:48:43;38.47;;;30.17;;
70150;SDS011;57517;43.562;19.540;2022-10-16T14:51:14;40.17;;;30.63;;
70150;SDS011;57517;43.562;19.540;2022-10-16T14:53:41;43.30;;;30.63;;
70150;SDS011;57517;43.562;19.540;2022-10-16T14:56:15;39.85;;;32.42;;
70150;SDS011;57517;43.562;19.540;2022-10-16T14:58:46;38.92;;;34.03;;
70150;SDS011;57517;43.562;19.540;2022-10-16T15:01:12;55.97;;;42.88;;
70150;SDS011;57517;43.562;19.540;2022-10-16T15:03:38;44.92;;;33.78;;
70150;SDS011;57517;43.562;19.540;2022-10-16T15:06:08;33.95;;;25.05;;
70150;SDS011;57517;43.562;19.540;2022-10-16T15:08:40;25.50;;;16.20;;
70150;SDS011;57517;43.562;19.540;2022-10-16T15:11:13;25.63;;;19.42;;
70150;SDS011;57517;43.562;19.540;2022-10-16T15:13:41;24.13;;;18.77;;
70150;SDS011;57517;43.562;19.540;2022-10-16T15:16:10;34.45;;;19.17;;
70150;SDS011;57517;43.562;19.540;2022-10-16T15:18:37;26.80;;;20.60;;
70150;SDS011;57517;43.562;19.540;2022-10-16T15:21:03;18.67;;;14.57;;
70150;SDS011;57517;43.562;19.540;2022-10-16T15:23:29;25.00;;;17.98;;
70150;SDS011;57517;43.562;19.540;2022-10-16T15:25:55;19.85;;;14.80;;
70150;SDS011;57517;43.562;19.540;2022-10-16T15:28:22;28.25;;;18.85;;
70150;SDS011;57517;43.562;19.540;2022-10-16T15:30:50;29.40;;;19.67;;
70150;SDS011;57517;43.562;19.540;2022-10-16T15:33:18;27.38;;;21.40;;
70150;SDS011;57517;43.562;19.540;2022-10-16T15:35:46;36.33;;;27.00;;
70150;SDS011;57517;43.562;19.540;2022-10-16T15:38:13;32.55;;;24.30;;
70150;SDS011;57517;43.562;19.540;2022-10-16T15:40:40;31.55;;;22.20;;
70150;SDS011;57517;43.562;19.540;2022-10-16T15:43:06;32.30;;;22.10;;
70150;SDS011;57517;43.562;19.540;2022-10-16T15:45:33;26.50;;;20.45;;
70150;SDS011;57517;43.562;19.540;2022-10-16T15:47:58;31.02;;;21.77;;
70150;SDS011;57517;43.562;19.540;2022-10-16T15:50:24;21.35;;;13.30;;
70150;SDS011;57517;43.562;19.540;2022-10-16T15:52:51;21.23;;;15.25;;
70150;SDS011;57517;43.562;19.540;2022-10-16T15:55:17;19.17;;;13.13;;
70150;SDS011;57517;43.562;19.540;2022-10-16T15:57:43;20.58;;;15.77;;
70150;SDS011;57517;43.562;19.540;2022-10-16T16:00:14;23.65;;;17.90;;
70150;SDS011;57517;43.562;19.540;2022-10-16T16:02:43;28.77;;;19.60;;
70150;SDS011;57517;43.562;19.540;2022-10-16T16:05:14;26.50;;;17.98;;
70150;SDS011;57517;43.562;19.540;2022-10-16T16:07:40;26.77;;;20.45;;
70150;SDS011;57517;43.562;19.540;2022-10-16T16:10:06;27.15;;;21.02;;
70150;SDS011;57517;43.562;19.540;2022-10-16T16:12:34;29.85;;;22.02;;
70150;SDS011;57517;43.562;19.540;2022-10-16T16:15:00;39.95;;;26.63;;